createdAt,value
2022-08-14T00:01:02.210Z,7.25
2022-08-14T00:03:36.994Z,6.72
2022-08-14T00:06:14.006Z,7.47
2022-08-14T00:08:50.949Z,7.25
2022-08-14T00:11:18.938Z,7.53
2022-08-14T00:13:51.796Z,6.93
2022-08-14T00:16:41.237Z,6.65
2022-08-14T00:19:19.126Z,7.32
2022-08-14T00:21:50.316Z,7.68
2022-08-14T00:24:28.323Z,7.60
2022-08-14T00:26:57.806Z,7.50
2022-08-14T00:29:29.966Z,6.95
2022-08-14T00:31:59.890Z,7.38
2022-08-14T00:34:36.803Z,7.32
2022-08-14T00:37:04.695Z,7.50
2022-08-14T00:39:31.662Z,7.28
2022-08-14T00:41:59.727Z,7.68
2022-08-14T00:44:32.406Z,7.00
2022-08-14T00:47:00.905Z,7.43
2022-08-14T00:49:27.806Z,7.43
2022-08-14T00:51:56.732Z,7.50
2022-08-14T00:54:25.044Z,7.35
2022-08-14T00:56:55.285Z,8.23
2022-08-14T00:59:24.998Z,7.10
2022-08-14T01:01:54.369Z,7.00
2022-08-14T01:04:38.466Z,8.30
2022-08-14T01:07:09.983Z,7.47
2022-08-14T01:09:37.346Z,7.53
2022-08-14T01:12:07.835Z,7.93
2022-08-14T01:14:35.936Z,7.50
2022-08-14T01:17:03.100Z,7.00
2022-08-14T01:19:30.735Z,7.68
2022-08-14T01:22:02.818Z,7.80
2022-08-14T01:24:34.149Z,7.53
2022-08-14T01:27:01.219Z,7.20
2022-08-14T01:29:51.222Z,7.25
2022-08-14T01:32:17.267Z,7.95
2022-08-14T01:35:18.333Z,7.13
2022-08-14T01:37:39.247Z,7.32
2022-08-14T01:42:42.378Z,7.00
2022-08-14T01:45:11.267Z,7.53
2022-08-14T01:47:38.382Z,7.53
2022-08-14T01:50:06.122Z,7.80
2022-08-14T01:52:59.686Z,7.70
2022-08-14T01:55:23.079Z,8.27
2022-08-14T01:58:02.132Z,8.38
2022-08-14T02:00:37.131Z,8.02
2022-08-14T02:03:06.800Z,8.07
2022-08-14T02:05:35.582Z,7.70
2022-08-14T02:08:08.853Z,8.48
2022-08-14T02:10:46.497Z,7.68
2022-08-14T02:13:16.134Z,8.38
2022-08-14T02:15:43.863Z,7.75
2022-08-14T02:18:11.784Z,7.30
2022-08-14T02:20:41.816Z,7.95
2022-08-14T02:23:09.066Z,8.48
2022-08-14T02:25:37.126Z,8.10
2022-08-14T02:28:25.301Z,8.30
2022-08-14T02:30:53.094Z,8.52
2022-08-14T02:33:19.938Z,8.23
2022-08-14T02:35:52.865Z,8.18
2022-08-14T02:38:30.090Z,8.63
2022-08-14T02:41:08.814Z,7.53
2022-08-14T02:43:46.245Z,8.10
2022-08-14T02:46:20.495Z,7.88
2022-08-14T02:49:05.842Z,8.50
2022-08-14T02:51:34.510Z,8.40
2022-08-14T02:54:01.893Z,8.30
2022-08-14T02:57:15.641Z,7.80
2022-08-14T02:59:19.331Z,8.10
2022-08-14T03:01:51.164Z,8.18
2022-08-14T03:04:22.177Z,8.50
2022-08-14T03:06:57.565Z,8.18
2022-08-14T03:10:27.040Z,7.93
2022-08-14T03:12:31.038Z,7.20
2022-08-14T03:14:58.645Z,7.70
2022-08-14T03:17:25.279Z,7.80
2022-08-14T03:19:51.844Z,8.38
2022-08-14T03:22:18.537Z,7.85
2022-08-14T03:24:45.109Z,7.45
2022-08-14T03:27:11.688Z,8.48
2022-08-14T03:29:39.654Z,8.40
2022-08-14T03:32:07.983Z,7.80
2022-08-14T03:34:48.042Z,8.05
2022-08-14T03:37:37.937Z,8.40
2022-08-14T03:40:09.777Z,7.93
2022-08-14T03:42:38.305Z,8.00
2022-08-14T03:45:27.808Z,7.72
2022-08-14T03:47:58.531Z,8.15
2022-08-14T03:50:27.830Z,7.90
2022-08-14T03:53:00.687Z,8.18
2022-08-14T03:55:27.916Z,8.85
2022-08-14T03:57:56.866Z,9.52
2022-08-14T04:00:40.484Z,9.02
2022-08-14T04:03:14.259Z,9.85
2022-08-14T04:05:48.848Z,9.93
2022-08-14T04:08:29.086Z,8.90
2022-08-14T04:10:58.085Z,9.23
2022-08-14T04:13:25.107Z,9.60
2022-08-14T04:16:02.051Z,8.48
2022-08-14T04:18:33.875Z,8.98
2022-08-14T04:21:00.984Z,8.18
2022-08-14T04:23:29.409Z,8.70
2022-08-14T04:25:59.274Z,8.45
2022-08-14T04:29:07.549Z,8.98
2022-08-14T04:31:15.375Z,9.00
2022-08-14T04:33:42.218Z,8.80
2022-08-14T04:36:09.519Z,9.07
2022-08-14T04:38:42.706Z,9.50
2022-08-14T04:41:09.879Z,8.73
2022-08-14T04:43:39.184Z,9.07
2022-08-14T04:46:08.137Z,8.82
2022-08-14T04:48:43.246Z,8.63
2022-08-14T04:51:19.774Z,9.02
2022-08-14T04:53:48.442Z,9.20
2022-08-14T04:56:30.995Z,8.70
2022-08-14T04:59:03.798Z,8.80
2022-08-14T05:01:39.531Z,8.63
2022-08-14T05:04:08.071Z,8.90
2022-08-14T05:06:39.050Z,9.60
2022-08-14T05:09:07.163Z,9.30
2022-08-14T05:11:37.175Z,9.13
2022-08-14T05:14:34.384Z,9.15
2022-08-14T05:16:51.071Z,9.23
2022-08-14T05:19:27.310Z,9.40
2022-08-14T05:22:15.648Z,9.05
2022-08-14T05:24:42.322Z,8.88
2022-08-14T05:27:10.461Z,8.60
2022-08-14T05:29:37.212Z,9.38
2022-08-14T05:32:04.153Z,9.50
2022-08-14T05:34:32.279Z,9.48
2022-08-14T05:37:02.226Z,9.02
2022-08-14T05:39:30.048Z,9.10
2022-08-14T05:41:57.714Z,8.73
2022-08-14T05:44:29.687Z,9.48
2022-08-14T05:46:56.946Z,8.90
2022-08-14T05:49:26.204Z,8.55
2022-08-14T05:52:01.890Z,8.57
2022-08-14T05:54:30.648Z,9.02
2022-08-14T05:57:02.684Z,9.23
2022-08-14T05:59:39.160Z,8.65
2022-08-14T06:02:06.600Z,9.23
2022-08-14T06:04:33.194Z,9.50
2022-08-14T06:07:01.076Z,9.38
2022-08-14T06:09:28.560Z,8.70
2022-08-14T06:14:28.219Z,8.65
2022-08-14T06:16:54.737Z,8.93
2022-08-14T06:19:23.250Z,9.00
2022-08-14T06:21:55.854Z,9.63
2022-08-14T06:24:26.893Z,9.20
2022-08-14T06:26:54.419Z,9.05
2022-08-14T06:29:23.810Z,8.90
2022-08-14T06:32:00.033Z,9.32
2022-08-14T06:35:10.123Z,8.68
2022-08-14T06:37:16.771Z,8.77
2022-08-14T06:39:44.860Z,8.88
2022-08-14T06:42:18.452Z,9.35
2022-08-14T06:44:58.397Z,9.18
2022-08-14T06:47:25.189Z,9.60
2022-08-14T06:49:55.945Z,9.48
2022-08-14T06:52:25.047Z,9.57
2022-08-14T06:54:52.965Z,9.10
2022-08-14T06:57:21.504Z,9.80
2022-08-14T06:59:48.214Z,10.30
2022-08-14T07:02:17.866Z,9.35
2022-08-14T07:04:45.616Z,8.93
2022-08-14T07:07:12.193Z,9.50
2022-08-14T07:09:44.069Z,9.60
2022-08-14T07:12:55.074Z,10.23
2022-08-14T07:15:06.840Z,9.55
2022-08-14T07:17:36.292Z,10.32
2022-08-14T07:20:04.376Z,9.93
2022-08-14T07:22:32.851Z,8.43
2022-08-14T07:25:16.928Z,9.57
2022-08-14T07:27:44.891Z,9.10
2022-08-14T07:30:34.403Z,10.70
2022-08-14T07:33:00.265Z,10.05
2022-08-14T07:35:30.259Z,10.10
2022-08-14T07:38:04.178Z,9.88
2022-08-14T07:40:32.024Z,10.10
2022-08-14T07:43:14.444Z,9.23
2022-08-14T07:45:41.685Z,9.40
2022-08-14T07:48:09.204Z,9.32
2022-08-14T07:50:42.398Z,8.80
2022-08-14T07:53:13.649Z,9.18
2022-08-14T07:55:42.585Z,7.95
2022-08-14T07:58:30.474Z,7.90
2022-08-14T08:00:57.937Z,8.63
2022-08-14T08:03:26.406Z,8.82
2022-08-14T08:05:54.722Z,8.10
2022-08-14T08:08:27.136Z,8.20
2022-08-14T08:11:03.028Z,7.45
2022-08-14T08:13:33.647Z,8.02
2022-08-14T08:16:01.039Z,8.10
2022-08-14T08:18:29.664Z,7.43
2022-08-14T08:20:59.215Z,7.35
2022-08-14T08:23:39.963Z,7.95
2022-08-14T08:26:07.973Z,8.30
2022-08-14T08:28:36.348Z,6.75
2022-08-14T08:31:04.935Z,7.05
2022-08-14T08:33:37.270Z,7.32
2022-08-14T08:36:05.970Z,6.75
2022-08-14T08:39:16.878Z,7.63
2022-08-14T08:41:21.610Z,7.03
2022-08-14T08:43:51.128Z,7.80
2022-08-14T08:46:23.452Z,7.30
2022-08-14T08:48:54.196Z,7.20
2022-08-14T08:51:31.148Z,6.85
2022-08-14T08:54:02.952Z,7.18
2022-08-14T08:56:40.671Z,6.78
2022-08-14T08:59:21.490Z,6.85
2022-08-14T09:01:52.221Z,7.40
2022-08-14T09:04:19.611Z,6.60
2022-08-14T09:07:00.040Z,7.30
2022-08-14T09:09:54.466Z,7.60
2022-08-14T09:12:21.830Z,7.03
2022-08-14T09:14:49.777Z,6.95
2022-08-14T09:17:18.183Z,7.50
2022-08-14T09:19:46.747Z,7.38
2022-08-14T09:22:33.347Z,7.38
2022-08-14T09:25:01.247Z,7.65
2022-08-14T09:27:28.629Z,7.35
2022-08-14T09:29:56.642Z,6.82
2022-08-14T09:32:58.091Z,6.63
2022-08-14T09:35:28.326Z,7.07
2022-08-14T09:38:04.861Z,6.90
2022-08-14T09:40:47.707Z,6.57
2022-08-14T09:43:27.443Z,6.25
2022-08-14T09:45:56.309Z,5.90
2022-08-14T09:48:27.680Z,6.28
2022-08-14T09:54:17.749Z,5.70
2022-08-14T09:56:30.326Z,5.90
2022-08-14T10:01:36.479Z,6.07
2022-08-14T10:04:31.356Z,5.75
2022-08-14T10:06:53.672Z,5.82
2022-08-14T10:09:20.472Z,6.53
2022-08-14T10:11:59.136Z,6.30
2022-08-14T10:14:35.780Z,6.35
2022-08-14T10:17:06.365Z,6.25
2022-08-14T10:19:35.776Z,6.25
2022-08-14T10:23:14.811Z,5.88
2022-08-14T10:24:51.178Z,5.47
2022-08-14T10:27:19.763Z,5.18
2022-08-14T10:29:48.844Z,5.63
2022-08-14T10:32:17.928Z,5.93
2022-08-14T10:35:06.229Z,5.72
2022-08-14T10:37:41.423Z,5.55
2022-08-14T10:40:38.680Z,5.85
2022-08-14T10:42:58.419Z,5.90
2022-08-14T10:45:35.494Z,5.90
2022-08-14T10:48:24.522Z,5.45
2022-08-14T10:51:02.255Z,5.65
2022-08-14T10:53:32.902Z,5.72
2022-08-14T10:56:01.045Z,5.15
2022-08-14T10:58:32.985Z,5.47
2022-08-14T11:01:02.337Z,6.00
2022-08-14T11:03:56.174Z,5.80
2022-08-14T11:06:24.695Z,5.13
2022-08-14T11:08:51.973Z,5.20
2022-08-14T11:11:19.720Z,4.82
2022-08-14T11:13:46.672Z,5.05
2022-08-14T11:16:14.502Z,5.22
2022-08-14T11:18:46.458Z,5.65
2022-08-14T11:21:19.706Z,5.30
2022-08-14T11:23:49.005Z,4.95
2022-08-14T11:26:20.840Z,17.70
2022-08-14T11:28:50.107Z,6.25
2022-08-14T11:31:19.977Z,4.85
2022-08-14T11:33:51.015Z,5.35
2022-08-14T11:36:18.726Z,4.70
2022-08-14T11:38:46.472Z,4.20
2022-08-14T11:41:14.146Z,4.03
2022-08-14T11:43:55.829Z,4.32
2022-08-14T11:46:30.424Z,4.65
2022-08-14T11:49:06.553Z,4.60
2022-08-14T11:51:42.912Z,4.35
2022-08-14T11:54:20.432Z,5.10
2022-08-14T11:57:00.737Z,5.00
2022-08-14T11:59:32.851Z,4.50
2022-08-14T12:02:09.798Z,3.63
2022-08-14T12:04:57.807Z,4.18
2022-08-14T12:07:24.579Z,4.05
2022-08-14T12:09:53.703Z,3.90
2022-08-14T12:12:35.305Z,4.20
2022-08-14T12:15:14.509Z,4.00
2022-08-14T12:17:47.300Z,4.10
2022-08-14T12:20:30.208Z,4.38
2022-08-14T12:25:27.319Z,3.55
2022-08-14T12:28:01.060Z,3.97
2022-08-14T12:30:37.665Z,4.53
2022-08-14T12:33:07.708Z,4.00
2022-08-14T12:35:41.842Z,4.35
2022-08-14T12:38:09.239Z,4.07
2022-08-14T12:40:47.575Z,4.55
2022-08-14T12:43:14.546Z,4.10
2022-08-14T12:45:46.632Z,4.03
2022-08-14T12:48:21.845Z,4.30
2022-08-14T12:50:59.919Z,4.30
2022-08-14T12:53:36.343Z,4.28
2022-08-14T12:56:21.478Z,3.90
2022-08-14T12:58:54.472Z,4.10
2022-08-14T13:01:23.231Z,4.43
2022-08-14T13:03:51.975Z,4.15
2022-08-14T13:06:20.364Z,3.70
2022-08-14T13:08:53.372Z,4.32
2022-08-14T13:11:24.088Z,3.90
2022-08-14T13:13:55.155Z,4.20
2022-08-14T13:16:33.818Z,4.28
2022-08-14T13:19:05.070Z,4.38
2022-08-14T13:21:59.003Z,4.25
2022-08-14T13:24:27.763Z,4.78
2022-08-14T13:26:56.043Z,3.83
2022-08-14T13:29:24.612Z,4.40
2022-08-14T13:31:54.993Z,3.67
2022-08-14T13:34:24.000Z,3.80
2022-08-14T13:36:59.286Z,3.92
2022-08-14T13:39:30.866Z,3.30
2022-08-14T13:42:04.606Z,4.00
2022-08-14T13:44:35.689Z,3.78
2022-08-14T13:47:03.913Z,4.20
2022-08-14T13:49:30.497Z,4.35
2022-08-14T13:52:02.851Z,3.75
2022-08-14T13:54:44.618Z,3.92
2022-08-14T13:57:14.085Z,4.30
2022-08-14T13:59:44.698Z,4.47
2022-08-14T14:02:12.137Z,3.90
2022-08-14T14:05:01.050Z,3.80
2022-08-14T14:07:33.276Z,3.97
2022-08-14T14:10:06.220Z,4.35
2022-08-14T14:12:38.550Z,3.65
2022-08-14T14:15:17.998Z,4.10
2022-08-14T14:17:49.527Z,4.25
2022-08-14T14:20:35.343Z,4.13
2022-08-14T14:23:11.625Z,4.10
2022-08-14T14:25:49.280Z,4.38
2022-08-14T14:28:28.678Z,4.38
2022-08-14T14:33:47.316Z,4.18
2022-08-14T14:36:20.819Z,3.85
2022-08-14T14:38:53.008Z,4.00
2022-08-14T14:41:21.195Z,4.22
2022-08-14T14:43:51.475Z,3.90
2022-08-14T14:46:19.857Z,4.65
2022-08-14T14:48:53.941Z,3.80
2022-08-14T14:51:21.360Z,4.20
2022-08-14T14:53:48.195Z,3.70
2022-08-14T14:56:50.258Z,3.72
2022-08-14T14:59:02.670Z,3.95
2022-08-14T15:01:34.594Z,4.70
2022-08-14T15:04:04.072Z,4.15
2022-08-14T15:06:34.714Z,4.00
2022-08-14T15:09:02.143Z,4.13
2022-08-14T15:11:32.801Z,3.78
2022-08-14T15:14:00.288Z,3.88
2022-08-14T15:16:27.324Z,3.80
2022-08-14T15:18:54.485Z,3.97
2022-08-14T15:21:21.201Z,4.15
2022-08-14T15:23:49.737Z,4.32
2022-08-14T15:26:30.893Z,3.95
2022-08-14T15:29:02.755Z,3.63
2022-08-14T15:31:31.803Z,4.05
2022-08-14T15:34:01.064Z,3.65
2022-08-14T15:36:45.196Z,3.97
2022-08-14T15:39:12.756Z,3.63
2022-08-14T15:41:42.116Z,3.65
2022-08-14T15:44:25.486Z,3.80
2022-08-14T15:46:54.602Z,3.50
2022-08-14T15:49:21.785Z,3.60
2022-08-14T15:51:48.362Z,3.55
2022-08-14T15:54:17.657Z,3.40
2022-08-14T15:56:56.258Z,3.92
2022-08-14T15:59:28.171Z,3.60
2022-08-14T16:01:55.687Z,3.20
2022-08-14T16:04:22.606Z,3.90
2022-08-14T16:06:54.696Z,3.22
2022-08-14T16:09:22.567Z,3.38
2022-08-14T16:11:53.530Z,3.45
2022-08-14T16:14:21.502Z,3.90
2022-08-14T16:17:00.018Z,3.28
2022-08-14T16:19:28.978Z,3.70
2022-08-14T16:22:03.431Z,3.42
2022-08-14T16:25:00.398Z,3.35
2022-08-14T16:27:37.062Z,3.40
2022-08-14T16:30:10.902Z,3.55
2022-08-14T16:32:55.125Z,3.33
2022-08-14T16:35:22.738Z,4.10
2022-08-14T16:37:49.790Z,3.60
2022-08-14T16:40:16.698Z,3.63
2022-08-14T16:43:04.460Z,3.13
2022-08-14T16:45:30.890Z,3.33
2022-08-14T16:48:01.550Z,3.58
2022-08-14T16:50:43.514Z,3.50
2022-08-14T16:53:11.004Z,3.55
2022-08-14T16:55:51.439Z,3.70
2022-08-14T16:58:22.084Z,3.20
2022-08-14T17:01:22.386Z,3.78
2022-08-14T17:03:57.469Z,3.20
2022-08-14T17:06:39.239Z,3.50
2022-08-14T17:09:27.968Z,3.63
2022-08-14T17:11:56.468Z,3.47
2022-08-14T17:14:24.699Z,3.47
2022-08-14T17:16:58.387Z,3.20
2022-08-14T17:19:26.286Z,3.35
2022-08-14T17:21:57.860Z,3.20
2022-08-14T17:24:56.697Z,3.20
2022-08-14T17:27:18.331Z,3.50
2022-08-14T17:29:56.479Z,3.50
2022-08-14T17:32:44.112Z,3.20
2022-08-14T17:35:16.587Z,3.30
2022-08-14T17:37:45.407Z,3.10
2022-08-14T17:40:16.171Z,3.30
2022-08-14T17:43:00.833Z,2.97
2022-08-14T17:45:43.013Z,2.97
2022-08-14T17:49:14.089Z,3.13
2022-08-14T17:51:13.592Z,2.75
2022-08-14T17:53:53.549Z,2.95
2022-08-14T17:56:27.923Z,3.08
2022-08-14T17:59:01.453Z,3.30
2022-08-14T18:01:28.291Z,3.22
2022-08-14T18:03:58.379Z,3.60
2022-08-14T18:06:38.328Z,3.58
2022-08-14T18:09:24.590Z,4.68
2022-08-14T18:11:54.224Z,4.38
2022-08-14T18:14:32.309Z,5.55
2022-08-14T18:17:00.947Z,4.28
2022-08-14T18:19:29.112Z,4.80
2022-08-14T18:21:58.965Z,4.78
2022-08-14T18:24:30.087Z,5.82
2022-08-14T18:27:02.644Z,4.60
2022-08-14T18:29:42.489Z,4.43
2022-08-14T18:32:47.220Z,4.47
2022-08-14T18:35:23.328Z,4.00
2022-08-14T18:38:43.070Z,4.28
2022-08-14T18:41:36.194Z,3.70
2022-08-14T18:44:04.190Z,4.38
2022-08-14T18:47:15.968Z,4.10
2022-08-14T18:50:01.369Z,4.50
2022-08-14T18:52:44.336Z,3.80
2022-08-14T18:55:52.779Z,4.07
2022-08-14T18:58:31.424Z,3.97
2022-08-14T19:01:01.242Z,4.40
2022-08-14T19:03:55.927Z,3.70
2022-08-14T19:06:56.242Z,3.72
2022-08-14T19:09:56.413Z,3.85
2022-08-14T19:13:00.457Z,4.82
2022-08-14T19:15:29.232Z,4.40
2022-08-14T19:18:14.228Z,4.97
2022-08-14T19:20:47.432Z,5.85
2022-08-14T19:23:16.726Z,5.20
2022-08-14T19:25:56.743Z,5.47
2022-08-14T19:28:27.446Z,5.53
2022-08-14T19:31:41.966Z,5.70
2022-08-14T19:34:09.518Z,5.72
2022-08-14T19:37:05.593Z,5.10
2022-08-14T19:39:49.117Z,5.60
2022-08-14T19:42:28.102Z,5.53
2022-08-14T19:44:58.610Z,5.82
2022-08-14T19:47:41.049Z,5.45
2022-08-14T19:50:38.391Z,5.30
2022-08-14T19:53:02.568Z,5.90
2022-08-14T19:55:34.497Z,5.30
2022-08-14T19:58:01.755Z,5.68
2022-08-14T20:00:31.546Z,5.63
2022-08-14T20:03:10.826Z,5.45
2022-08-14T20:05:43.162Z,5.03
2022-08-14T20:10:59.458Z,5.97
2022-08-14T20:11:14.214Z,5.93
2022-08-14T20:13:56.332Z,6.30
2022-08-14T20:16:32.092Z,6.93
2022-08-14T20:19:09.410Z,6.28
2022-08-14T20:21:35.966Z,6.20
2022-08-14T20:24:30.407Z,6.95
2022-08-14T20:27:23.095Z,7.28
2022-08-14T20:32:58.547Z,12.00
2022-08-14T20:35:35.210Z,12.05
2022-08-14T20:38:30.243Z,12.55
2022-08-14T20:40:53.278Z,10.10
2022-08-14T20:43:25.303Z,8.63
2022-08-14T20:45:56.491Z,7.35
2022-08-14T20:48:52.306Z,6.90
2022-08-14T20:51:23.988Z,6.25
2022-08-14T20:53:58.888Z,6.65
2022-08-14T20:56:29.015Z,6.32
2022-08-14T20:58:56.459Z,6.50
2022-08-14T21:01:35.281Z,6.05
2022-08-14T21:04:11.850Z,6.43
2022-08-14T21:07:24.509Z,6.30
2022-08-14T21:10:03.373Z,6.47
2022-08-14T21:12:35.152Z,6.25
2022-08-14T21:15:10.202Z,6.60
2022-08-14T21:17:41.589Z,6.38
2022-08-14T21:20:25.806Z,6.38
2022-08-14T21:22:54.016Z,6.03
2022-08-14T21:25:23.320Z,6.68
2022-08-14T21:27:57.039Z,6.03
2022-08-14T21:30:46.403Z,6.38
2022-08-14T21:33:14.739Z,6.78
2022-08-14T21:35:41.782Z,6.03
2022-08-14T21:38:09.122Z,6.60
2022-08-14T21:40:47.449Z,6.60
2022-08-14T21:43:18.216Z,7.18
2022-08-14T21:45:53.543Z,7.45
2022-08-14T21:48:26.287Z,6.88
2022-08-14T21:51:01.080Z,6.75
2022-08-14T21:53:31.356Z,7.70
2022-08-14T21:56:01.602Z,6.53
2022-08-14T21:58:52.203Z,6.88
2022-08-14T22:01:17.234Z,7.25
2022-08-14T22:03:55.041Z,7.57
2022-08-14T22:06:29.205Z,7.13
2022-08-14T22:08:56.918Z,6.95
2022-08-14T22:11:24.091Z,7.15
2022-08-14T22:13:51.787Z,6.95
2022-08-14T22:17:01.558Z,6.35
2022-08-14T22:19:10.556Z,7.32
2022-08-14T22:21:37.440Z,7.15
2022-08-14T22:24:10.368Z,7.60
2022-08-14T22:29:13.304Z,7.78
2022-08-14T22:31:40.165Z,8.00
2022-08-14T22:34:15.123Z,7.55
2022-08-14T22:36:42.302Z,7.57
2022-08-14T22:39:11.768Z,8.02
2022-08-14T22:41:43.411Z,7.22
2022-08-14T22:44:14.027Z,8.52
2022-08-14T22:46:43.532Z,7.50
2022-08-14T22:49:16.233Z,7.53
2022-08-14T22:52:03.738Z,7.95
2022-08-14T22:54:52.319Z,7.50
2022-08-14T22:57:20.255Z,7.75
2022-08-14T22:59:49.836Z,7.32
2022-08-14T23:02:30.369Z,7.53
2022-08-14T23:04:59.486Z,8.02
2022-08-14T23:08:59.490Z,8.45
2022-08-14T23:10:31.731Z,8.05
2022-08-14T23:13:01.731Z,7.70
2022-08-14T23:15:30.361Z,7.88
2022-08-14T23:17:57.569Z,8.65
2022-08-14T23:20:29.119Z,7.93
2022-08-14T23:22:57.005Z,8.70
2022-08-14T23:25:56.718Z,7.82
2022-08-14T23:28:33.901Z,8.75
2022-08-14T23:31:08.569Z,7.97
2022-08-14T23:33:42.096Z,8.18
2022-08-14T23:36:32.833Z,8.25
2022-08-14T23:39:01.691Z,8.38
2022-08-14T23:41:46.284Z,9.00
2022-08-14T23:44:15.266Z,9.40
2022-08-14T23:46:42.639Z,8.98
2022-08-14T23:49:12.276Z,9.05
2022-08-14T23:51:40.493Z,8.65
2022-08-14T23:54:48.816Z,8.50
2022-08-14T23:56:59.949Z,8.93
2022-08-14T23:59:30.328Z,8.75
